»·PEaware :: AUZ081 KLAX-YSSY

AUZ081 :: KLAX-YSSY

FLIGHT INFORMATION

Flight Status: Arrived
Operator:
Australian Airlines
More flights by this operator :: More flights under this callsign
Pilot: Kim E. (65)
Aircraft: BOEING 747-400 (WINGLETS)
(B744)
More flights by this aircraft type
Origin: KLAX Los Angeles Intl
United States
Destination: YSSY Kingsford Smith Intl
Australia
More flights between these airports :: More routes between these airports
Route: DCT BOREE4
File this flight plan on PilotEdge
Remarks: / V /
Altitude:
(Current/Filed)
40,000ft
Speed:
(Current/Filed)
450kts
Departed: 13-Jan-13 11:58 AM
Arrived: 14-Jan-13 01:49 AM
Distance/Time
Traveled:
6508nm/13:51
Distance/Time
To Go:
Arrived

Flight Plot

Page will automatically refresh every two minutes.


Map Options




Map Legend


Flown Route
Filed Route
Departure Airport
Arrival Airport
Navaid (VOR, NDB)
Fix

Horizontal Profiles

Position Reports

Time Latitude Longitude Heading Altitude Ground
Speed
13-Jan-13 11:07 33.941702 -118.408998 265 137ft 0kts
13-Jan-13 11:08 33.941702 -118.408998 265 137ft 0kts
13-Jan-13 11:09 33.941702 -118.408998 265 137ft 0kts
13-Jan-13 11:10 33.941702 -118.408998 265 137ft 0kts
13-Jan-13 11:11 33.941702 -118.408998 265 137ft 0kts
13-Jan-13 11:12 33.941702 -118.408998 265 137ft 0kts
13-Jan-13 11:13 33.941702 -118.408998 265 137ft 0kts
13-Jan-13 11:14 33.941702 -118.408998 265 137ft 0kts
13-Jan-13 11:15 33.941702 -118.408998 265 137ft 0kts
13-Jan-13 11:16 33.941702 -118.408998 265 137ft 0kts
13-Jan-13 11:17 33.941702 -118.408998 265 137ft 0kts
13-Jan-13 11:18 33.941702 -118.408998 265 137ft 0kts
13-Jan-13 11:19 33.940561 -118.408944 265 137ft 0kts
13-Jan-13 11:20 33.940561 -118.408944 265 137ft 0kts
13-Jan-13 11:21 33.940561 -118.408944 265 137ft 0kts
13-Jan-13 11:22 33.940561 -118.408944 265 137ft 0kts
13-Jan-13 11:23 33.940561 -118.408944 265 137ft 0kts
13-Jan-13 11:24 33.940561 -118.408944 265 137ft 0kts
13-Jan-13 11:25 33.940561 -118.408944 265 137ft 0kts
13-Jan-13 11:26 33.940561 -118.408944 265 137ft 0kts
13-Jan-13 11:27 33.940561 -118.408944 265 137ft 0kts
13-Jan-13 11:28 33.940561 -118.408944 265 137ft 0kts
13-Jan-13 11:29 33.940561 -118.408944 265 137ft 0kts
13-Jan-13 11:30 33.940561 -118.408944 265 137ft 0kts
13-Jan-13 11:31 33.940561 -118.408944 265 137ft 0kts
13-Jan-13 11:32 33.940561 -118.408944 265 137ft 0kts
13-Jan-13 11:33 33.940561 -118.408944 265 137ft 0kts
13-Jan-13 11:34 33.940561 -118.408944 265 137ft 0kts
13-Jan-13 11:35 33.940573 -118.408742 265 137ft 0kts
13-Jan-13 11:36 33.940589 -118.408470 265 137ft 2kts
13-Jan-13 11:37 33.940905 -118.407880 175 137ft 0kts
13-Jan-13 11:38 33.940905 -118.407880 175 137ft 0kts
13-Jan-13 11:39 33.940905 -118.407880 175 137ft 0kts
13-Jan-13 11:40 33.940905 -118.407880 175 137ft 0kts
13-Jan-13 11:41 33.940905 -118.407880 175 137ft 0kts
13-Jan-13 11:42 33.940905 -118.407880 175 137ft 0kts
13-Jan-13 11:43 33.940905 -118.407880 175 137ft 0kts
13-Jan-13 11:44 33.940905 -118.407880 175 137ft 0kts
13-Jan-13 11:45 33.940905 -118.407880 175 137ft 0kts
13-Jan-13 11:46 33.940904 -118.407880 175 137ft 0kts
13-Jan-13 11:47 33.940345 -118.407834 175 137ft 4kts
13-Jan-13 11:48 33.938304 -118.407705 174 137ft 8kts
13-Jan-13 11:49 33.938255 -118.405497 82 137ft 8kts
13-Jan-13 11:50 33.938565 -118.402443 82 137ft 9kts
13-Jan-13 11:51 33.938922 -118.399043 82 137ft 10kts
13-Jan-13 11:52 33.939313 -118.395412 81 137ft 11kts
13-Jan-13 11:53 33.939649 -118.391669 83 137ft 11kts
13-Jan-13 11:54 33.940058 -118.387856 82 137ft 11kts
13-Jan-13 11:55 33.940413 -118.383982 83 137ft 11kts
13-Jan-13 11:56 33.940672 -118.380635 112 137ft 7kts
13-Jan-13 11:57 33.939851 -118.381007 262 137ft 6kts
13-Jan-13 11:58 33.936323 -118.416996 264 268ft 199kts
13-Jan-13 11:59 33.909562 -118.475652 232 1242ft 234kts
13-Jan-13 12:00 33.872028 -118.541582 238 3052ft 245kts
13-Jan-13 12:01 33.835775 -118.615747 240 3864ft 275kts
13-Jan-13 12:02 33.796093 -118.701646 240 4927ft 303kts
13-Jan-13 12:03 33.755533 -118.791455 241 6490ft 312kts
13-Jan-13 12:04 33.713423 -118.884720 242 8043ft 320kts
13-Jan-13 12:05 33.670903 -118.977958 245 9630ft 320kts
13-Jan-13 12:06 33.629314 -119.070089 241 11192ft 322kts
13-Jan-13 12:07 33.584232 -119.168339 245 11994ft 346kts
13-Jan-13 12:08 33.536055 -119.274130 245 12783ft 380kts
13-Jan-13 12:09 33.483608 -119.388319 246 14056ft 392kts
13-Jan-13 12:10 33.430064 -119.505458 247 16064ft 413kts
13-Jan-13 12:11 33.374450 -119.625240 246 18623ft 415kts
13-Jan-13 12:12 33.316566 -119.749956 247 19875ft 438kts
13-Jan-13 12:13 33.256639 -119.879688 248 21513ft 450kts
13-Jan-13 12:14 33.195051 -120.011471 248 22991ft 460kts
13-Jan-13 12:15 33.131825 -120.146034 248 24251ft 471kts
13-Jan-13 12:16 33.067201 -120.284221 248 25468ft 480kts
13-Jan-13 12:17 33.001352 -120.423279 248 26582ft 487kts
13-Jan-13 12:18 32.933962 -120.565687 248 27585ft 494kts
13-Jan-13 12:19 32.866334 -120.707713 248 28515ft 500kts
13-Jan-13 12:20 32.797154 -120.852067 249 29634ft 499kts
13-Jan-13 12:21 32.728848 -120.995305 248 30638ft 498kts
13-Jan-13 12:22 32.659714 -121.138491 248 31516ft 498kts
13-Jan-13 12:23 32.591392 -121.280572 248 32277ft 498kts
13-Jan-13 12:24 32.522323 -121.422697 247 32980ft 498kts
13-Jan-13 12:25 32.453153 -121.565082 248 33601ft 496kts
13-Jan-13 12:26 32.384054 -121.706682 247 34102ft 497kts
13-Jan-13 12:27 32.314210 -121.848435 247 34191ft 497kts
13-Jan-13 12:28 32.245027 -121.989651 247 34186ft 497kts
13-Jan-13 12:29 32.175117 -122.130648 247 34197ft 497kts
13-Jan-13 12:30 32.105431 -122.271455 247 34194ft 497kts
13-Jan-13 12:31 32.035324 -122.412134 247 34185ft 497kts
13-Jan-13 12:32 31.964749 -122.552622 247 34196ft 497kts
13-Jan-13 12:33 31.894825 -122.692523 247 34195ft 498kts
13-Jan-13 12:34 31.824365 -122.831939 246 34185ft 498kts
13-Jan-13 12:35 31.753161 -122.973335 247 34196ft 498kts
13-Jan-13 12:36 31.682372 -123.112572 246 34198ft 499kts
13-Jan-13 12:37 31.610983 -123.252709 247 34188ft 498kts
13-Jan-13 12:38 31.539713 -123.392415 246 34196ft 500kts
13-Jan-13 12:39 31.480030 -123.508622 246 34194ft 500kts
13-Jan-13 12:40 31.396560 -123.671408 246 34193ft 498kts
13-Jan-13 12:41 31.324848 -123.809806 246 34206ft 502kts
13-Jan-13 12:42 31.263852 -123.927579 246 34201ft 498kts
13-Jan-13 12:43 31.179874 -124.089073 246 34210ft 503kts
13-Jan-13 12:44 31.118995 -124.205213 246 34189ft 502kts
13-Jan-13 12:45 31.034001 -124.367993 246 34196ft 505kts
13-Jan-13 12:46 30.972692 -124.484179 246 34205ft 505kts
13-Jan-13 12:47 30.899127 -124.623679 246 34213ft 507kts
13-Jan-13 12:48 30.812563 -124.786845 246 34217ft 506kts
13-Jan-13 12:49 30.751064 -124.902287 246 34232ft 507kts
13-Jan-13 12:50 30.663849 -125.066171 245 34219ft 508kts
13-Jan-13 12:51 30.601687 -125.181846 245 34242ft 508kts
13-Jan-13 12:52 30.526987 -125.321466 245 34226ft 507kts
13-Jan-13 12:53 30.452439 -125.459888 245 34228ft 507kts
13-Jan-13 12:54 30.377820 -125.598005 245 34202ft 508kts
13-Jan-13 12:55 30.302368 -125.736934 245 34216ft 508kts
13-Jan-13 12:56 30.226883 -125.875058 245 34225ft 508kts
13-Jan-13 12:57 30.151699 -126.013186 245 34238ft 508kts
13-Jan-13 12:58 30.075915 -126.150908 245 34231ft 508kts
13-Jan-13 12:59 30.000058 -126.289220 245 34227ft 508kts
13-Jan-13 13:00 29.924087 -126.426484 245 34217ft 508kts
13-Jan-13 13:01 29.848194 -126.563395 245 34212ft 508kts
13-Jan-13 13:02 29.772044 -126.700372 245 34205ft 509kts
13-Jan-13 13:03 29.695272 -126.837493 245 34224ft 509kts
13-Jan-13 13:04 29.619279 -126.973829 245 34235ft 508kts
13-Jan-13 13:05 29.542059 -127.110907 244 34231ft 508kts
13-Jan-13 13:06 29.466008 -127.246661 245 34218ft 508kts
13-Jan-13 13:07 29.388957 -127.382900 244 34215ft 508kts
13-Jan-13 13:08 29.311647 -127.519103 245 34211ft 508kts
13-Jan-13 13:09 29.234202 -127.655247 244 34219ft 509kts
13-Jan-13 13:10 29.156834 -127.790277 244 34219ft 509kts
13-Jan-13 13:11 29.079567 -127.925675 244 34233ft 509kts
13-Jan-13 13:12 29.002019 -128.060234 244 34226ft 509kts
13-Jan-13 13:13 28.924404 -128.195140 244 34242ft 509kts
13-Jan-13 13:14 28.845827 -128.330807 244 34228ft 509kts
13-Jan-13 13:15 28.767905 -128.464887 244 34242ft 508kts
13-Jan-13 13:16 28.689811 -128.599228 243 34220ft 509kts
13-Jan-13 13:17 28.611244 -128.733292 243 34229ft 509kts
13-Jan-13 13:18 28.532648 -128.867900 243 34239ft 509kts
13-Jan-13 13:19 28.454237 -129.001399 243 34240ft 509kts
13-Jan-13 13:20 28.375781 -129.134834 243 34239ft 509kts
13-Jan-13 13:21 28.296890 -129.268120 243 34239ft 509kts
13-Jan-13 13:22 28.217629 -129.401382 243 34227ft 508kts
13-Jan-13 13:23 28.138322 -129.534991 243 34230ft 507kts
13-Jan-13 13:24 28.059926 -129.665866 243 34208ft 505kts
13-Jan-13 13:25 27.981450 -129.797320 243 34196ft 502kts
13-Jan-13 13:26 27.902688 -129.928159 243 34196ft 503kts
13-Jan-13 13:27 27.823993 -130.058882 243 34205ft 503kts
13-Jan-13 13:28 27.745077 -130.189480 242 34217ft 504kts
13-Jan-13 13:29 27.665662 -130.320086 242 34211ft 504kts
13-Jan-13 13:30 27.586416 -130.450918 242 34205ft 504kts
13-Jan-13 13:31 27.507177 -130.580452 242 34204ft 504kts
13-Jan-13 13:32 27.428134 -130.710521 242 34201ft 504kts
13-Jan-13 13:33 27.348549 -130.840127 242 34205ft 504kts
13-Jan-13 13:34 27.268808 -130.969640 242 34217ft 503kts
13-Jan-13 13:35 27.188804 -131.099507 242 34224ft 504kts
13-Jan-13 13:36 27.108995 -131.228096 242 34214ft 504kts
13-Jan-13 13:37 27.029038 -131.357351 242 34205ft 504kts
13-Jan-13 13:38 26.948492 -131.486463 242 34201ft 504kts
13-Jan-13 13:39 26.868190 -131.615245 242 34210ft 504kts
13-Jan-13 13:40 26.787789 -131.743600 242 34221ft 504kts
13-Jan-13 13:41 26.706935 -131.872067 242 34202ft 504kts
13-Jan-13 13:42 26.626229 -132.000655 242 34213ft 504kts
13-Jan-13 13:43 26.545333 -132.128435 242 34204ft 505kts
13-Jan-13 13:44 26.465007 -132.255977 242 34211ft 504kts
13-Jan-13 13:45 26.383914 -132.383656 241 34207ft 505kts
13-Jan-13 13:46 26.302496 -132.511584 242 34209ft 504kts
13-Jan-13 13:47 26.221145 -132.639018 241 34207ft 505kts
13-Jan-13 13:48 26.139903 -132.765534 241 34210ft 504kts
13-Jan-13 13:49 26.058501 -132.892738 241 34203ft 505kts
13-Jan-13 13:50 25.976714 -133.019463 241 34213ft 505kts
13-Jan-13 13:51 25.895279 -133.145860 241 34202ft 505kts
13-Jan-13 13:52 25.812810 -133.273095 241 34207ft 505kts
13-Jan-13 13:53 25.730721 -133.399426 241 34212ft 504kts
13-Jan-13 13:54 25.648970 -133.525223 241 34202ft 505kts
13-Jan-13 13:55 25.566549 -133.651169 241 34209ft 505kts
13-Jan-13 13:56 25.483907 -133.777971 241 34212ft 504kts
13-Jan-13 13:57 25.401813 -133.903172 241 34205ft 505kts
13-Jan-13 13:58 25.319153 -134.028995 241 34201ft 503kts
13-Jan-13 13:59 25.236859 -134.153689 241 34202ft 503kts
13-Jan-13 14:00 25.154865 -134.277351 241 34201ft 501kts
13-Jan-13 14:01 25.072373 -134.402127 241 34200ft 501kts
13-Jan-13 14:02 24.989781 -134.526062 241 34202ft 501kts
13-Jan-13 14:03 24.907643 -134.649580 241 34200ft 501kts
13-Jan-13 14:04 24.824948 -134.773136 241 34201ft 502kts
13-Jan-13 14:05 24.741906 -134.897068 241 34202ft 501kts
13-Jan-13 14:06 24.658807 -135.020872 240 34202ft 502kts
13-Jan-13 14:07 24.575956 -135.143583 240 34202ft 502kts
13-Jan-13 14:08 24.493338 -135.266339 241 34201ft 501kts
13-Jan-13 14:09 24.410008 -135.389631 240 34201ft 502kts
13-Jan-13 14:10 24.327151 -135.511960 240 34200ft 502kts
13-Jan-13 14:11 24.243447 -135.634946 240 34200ft 502kts
13-Jan-13 14:12 24.159825 -135.757326 240 34202ft 501kts
13-Jan-13 14:13 24.076107 -135.880099 240 34201ft 502kts
13-Jan-13 14:14 23.992570 -136.001709 240 34202ft 502kts
13-Jan-13 14:15 23.908905 -136.123782 240 34201ft 502kts
13-Jan-13 14:16 23.825147 -136.245210 240 34201ft 502kts
13-Jan-13 14:17 23.740943 -136.367222 240 34200ft 502kts
13-Jan-13 14:18 23.656552 -136.489204 240 34201ft 502kts
13-Jan-13 14:19 23.572237 -136.610479 240 34200ft 502kts
13-Jan-13 14:20 23.487905 -136.732182 240 34200ft 502kts
13-Jan-13 14:21 23.403788 -136.852978 240 34200ft 502kts
13-Jan-13 14:22 23.319735 -136.973503 240 34201ft 502kts
13-Jan-13 14:23 23.234358 -137.095294 240 34201ft 502kts
13-Jan-13 14:24 23.149942 -137.215386 240 34200ft 502kts
13-Jan-13 14:25 23.064940 -137.336400 240 34200ft 502kts
13-Jan-13 14:26 22.979642 -137.457059 239 34200ft 502kts
13-Jan-13 14:27 22.895076 -137.577006 239 34200ft 502kts
13-Jan-13 14:28 22.809838 -137.697104 239 34202ft 502kts
13-Jan-13 14:29 22.724860 -137.816838 239 34200ft 502kts
13-Jan-13 14:30 22.639639 -137.936560 239 34225ft 501kts
13-Jan-13 14:31 22.560134 -138.048082 237 34168ft 435kts
13-Jan-13 14:32 22.487113 -138.151461 235 34153ft 438kts
13-Jan-13 14:33 22.411727 -138.256269 231 34084ft 443kts
13-Jan-13 14:34 22.335635 -138.361703 232 34103ft 448kts
13-Jan-13 14:35 22.258283 -138.469415 232 33156ft 480kts
13-Jan-13 14:36 22.174629 -138.585280 232 32098ft 489kts
13-Jan-13 14:37 22.091563 -138.700525 232 32093ft 490kts
13-Jan-13 14:38 22.007231 -138.816898 231 32092ft 490kts
13-Jan-13 14:39 21.923093 -138.932812 232 32092ft 490kts
13-Jan-13 14:40 21.839298 -139.048233 231 32093ft 489kts
13-Jan-13 14:41 21.755696 -139.162755 231 32092ft 489kts
13-Jan-13 14:42 21.671578 -139.278235 231 32092ft 489kts
13-Jan-13 14:43 21.587044 -139.393622 231 32094ft 489kts
13-Jan-13 14:44 21.502961 -139.508343 231 32092ft 489kts
13-Jan-13 14:45 21.419100 -139.622981 231 32093ft 489kts
13-Jan-13 14:46 21.334522 -139.737672 231 32093ft 489kts
13-Jan-13 14:47 21.250174 -139.852286 231 32093ft 489kts
13-Jan-13 14:48 21.165897 -139.966115 231 32094ft 489kts
13-Jan-13 14:49 21.081139 -140.080623 231 32092ft 489kts
13-Jan-13 14:50 20.996745 -140.194314 231 32093ft 489kts
13-Jan-13 14:51 20.911946 -140.308089 231 32093ft 489kts
13-Jan-13 14:52 20.827300 -140.421952 231 32093ft 489kts
13-Jan-13 14:53 20.742407 -140.535482 231 32093ft 489kts
13-Jan-13 14:54 20.657195 -140.649532 231 32093ft 489kts
13-Jan-13 14:55 20.572220 -140.762814 230 32094ft 489kts
13-Jan-13 14:56 20.487029 -140.876081 231 32092ft 489kts
13-Jan-13 14:57 20.402174 -140.989365 230 32094ft 489kts
13-Jan-13 14:58 20.316626 -141.102613 230 32092ft 489kts
13-Jan-13 14:59 20.231722 -141.215151 230 32093ft 489kts
13-Jan-13 15:00 20.146605 -141.327469 230 32093ft 489kts
13-Jan-13 15:01 20.060894 -141.440317 230 32094ft 489kts
13-Jan-13 15:02 19.975543 -141.552864 230 32092ft 489kts
13-Jan-13 15:03 19.889675 -141.665440 230 32094ft 489kts
13-Jan-13 15:04 19.804042 -141.777886 230 32092ft 489kts
13-Jan-13 15:05 19.718636 -141.889484 230 32093ft 489kts
13-Jan-13 15:06 19.632875 -142.001435 230 32093ft 489kts
13-Jan-13 15:07 19.547136 -142.113268 230 32094ft 489kts
13-Jan-13 15:08 19.461523 -142.224653 230 32093ft 489kts
13-Jan-13 15:09 19.375409 -142.336824 230 32086ft 489kts
13-Jan-13 15:10 19.289296 -142.448297 230 32087ft 489kts
13-Jan-13 15:11 19.203022 -142.560008 230 32004ft 494kts
13-Jan-13 15:12 19.116144 -142.672229 230 32003ft 492kts
13-Jan-13 15:13 19.014388 -142.803149 230 32000ft 493kts
13-Jan-13 15:14 18.942045 -142.896459 230 31997ft 493kts
13-Jan-13 15:15 18.855185 -143.007848 230 31996ft 493kts
13-Jan-13 15:16 18.767872 -143.119885 230 31995ft 493kts
13-Jan-13 15:17 18.680651 -143.231453 230 31994ft 493kts
13-Jan-13 15:18 18.593669 -143.342365 230 31994ft 493kts
13-Jan-13 15:19 18.506424 -143.453849 230 31994ft 493kts
13-Jan-13 15:20 18.418897 -143.565447 230 31994ft 493kts
13-Jan-13 15:21 18.331835 -143.676280 230 31994ft 493kts
13-Jan-13 15:22 18.243769 -143.787894 230 31994ft 493kts
13-Jan-13 15:23 18.156534 -143.898262 230 31994ft 493kts
13-Jan-13 15:24 18.068616 -144.009531 229 31994ft 493kts
13-Jan-13 15:25 17.981979 -144.118674 229 31995ft 489kts
13-Jan-13 15:26 17.894592 -144.228943 229 31998ft 481kts
13-Jan-13 15:27 17.809717 -144.335571 229 32003ft 474kts
13-Jan-13 15:28 17.724945 -144.441977 230 32006ft 474kts
13-Jan-13 15:29 17.640299 -144.548239 229 32007ft 473kts
13-Jan-13 15:30 17.556212 -144.653339 229 32008ft 474kts
13-Jan-13 15:31 17.471250 -144.759829 229 32009ft 474kts
13-Jan-13 15:32 17.387171 -144.864762 229 32008ft 474kts
13-Jan-13 15:33 17.302151 -144.970593 229 32008ft 473kts
13-Jan-13 15:34 17.217416 -145.076112 229 32008ft 473kts
13-Jan-13 15:35 17.132843 -145.180967 229 32009ft 473kts
13-Jan-13 15:36 17.047510 -145.286912 229 32009ft 473kts
13-Jan-13 15:37 16.962831 -145.391651 229 32009ft 473kts
13-Jan-13 15:38 16.878094 -145.496247 229 32009ft 473kts
13-Jan-13 15:39 16.792889 -145.601665 229 32008ft 473kts
13-Jan-13 15:40 16.707852 -145.706309 229 32008ft 473kts
13-Jan-13 15:41 16.622654 -145.811259 229 32009ft 473kts
13-Jan-13 15:42 16.551861 -145.898202 229 32009ft 473kts
13-Jan-13 15:43 16.452209 -146.020469 229 32009ft 473kts
13-Jan-13 15:44 16.381263 -146.107650 229 32009ft 473kts
13-Jan-13 15:45 16.281770 -146.229213 229 32009ft 473kts
13-Jan-13 15:46 16.210734 -146.316033 229 32009ft 473kts
13-Jan-13 15:47 16.125313 -146.420252 229 32009ft 473kts
13-Jan-13 15:48 16.039915 -146.524153 229 32009ft 473kts
13-Jan-13 15:49 15.939995 -146.645880 229 32009ft 473kts
13-Jan-13 15:50 15.868802 -146.732235 229 32009ft 473kts
13-Jan-13 15:51 15.783641 -146.835510 229 32009ft 473kts
13-Jan-13 15:52 15.697871 -146.939441 229 32009ft 473kts
13-Jan-13 15:53 15.611911 -147.043248 229 32009ft 473kts
13-Jan-13 15:54 15.526608 -147.146418 229 32009ft 473kts
13-Jan-13 15:55 15.427012 -147.266610 229 32009ft 473kts
13-Jan-13 15:56 15.355591 -147.352612 229 32009ft 473kts
13-Jan-13 15:57 15.269595 -147.456145 229 32009ft 472kts
13-Jan-13 15:58 15.183822 -147.559084 228 32009ft 472kts
13-Jan-13 15:59 15.097995 -147.662174 229 32009ft 472kts
13-Jan-13 16:00 15.012102 -147.764985 228 32009ft 472kts
13-Jan-13 16:01 14.926204 -147.867627 229 32009ft 472kts
13-Jan-13 16:02 14.840355 -147.970331 228 32009ft 472kts
13-Jan-13 16:03 14.754280 -148.072892 228 32009ft 472kts
13-Jan-13 16:04 14.668340 -148.175394 228 32009ft 472kts
13-Jan-13 16:05 14.582300 -148.277720 228 32009ft 472kts
13-Jan-13 16:06 14.496225 -148.379872 228 32009ft 472kts
13-Jan-13 16:07 14.410214 -148.482310 228 32009ft 472kts
13-Jan-13 16:08 14.324048 -148.584414 228 32009ft 472kts
13-Jan-13 16:09 14.238263 -148.686056 228 32009ft 472kts
13-Jan-13 16:10 14.151452 -148.788666 228 32009ft 472kts
13-Jan-13 16:11 14.065207 -148.890368 228 32009ft 472kts
13-Jan-13 16:12 13.978983 -148.992219 228 32009ft 472kts
13-Jan-13 16:13 13.893247 -149.093100 228 32009ft 471kts
13-Jan-13 16:14 13.806642 -149.195034 228 32009ft 471kts
13-Jan-13 16:15 13.719729 -149.297155 228 32010ft 471kts
13-Jan-13 16:16 13.633603 -149.398101 228 32009ft 471kts
13-Jan-13 16:17 13.547492 -149.499184 228 32010ft 471kts
13-Jan-13 16:18 13.460610 -149.600996 228 32009ft 471kts
13-Jan-13 16:19 13.374666 -149.701580 228 32009ft 471kts
13-Jan-13 16:20 13.287902 -149.802950 228 32010ft 471kts
13-Jan-13 16:21 13.201297 -149.903865 228 32010ft 471kts
13-Jan-13 16:22 13.114861 -150.004717 228 32010ft 471kts
13-Jan-13 16:23 13.028202 -150.105502 228 32010ft 471kts
13-Jan-13 16:24 12.941602 -150.206163 228 32010ft 471kts
13-Jan-13 16:25 12.854654 -150.307190 228 32010ft 471kts
13-Jan-13 16:26 12.768542 -150.406964 228 32010ft 471kts
13-Jan-13 16:27 12.681331 -150.508131 228 32010ft 471kts
13-Jan-13 16:28 12.595141 -150.607886 228 32010ft 471kts
13-Jan-13 16:29 12.507802 -150.708790 228 32010ft 471kts
13-Jan-13 16:30 12.421158 -150.809084 228 32010ft 471kts
13-Jan-13 16:31 12.334350 -150.909133 228 32010ft 470kts
13-Jan-13 16:32 12.247500 -151.009303 228 32010ft 470kts
13-Jan-13 16:33 12.160328 -151.109598 228 32010ft 470kts
13-Jan-13 16:34 12.073430 -151.209408 228 32010ft 470kts
13-Jan-13 16:35 11.986489 -151.309406 228 32010ft 470kts
13-Jan-13 16:36 11.899552 -151.409066 228 32010ft 470kts
13-Jan-13 16:37 11.812658 -151.508741 228 32010ft 470kts
13-Jan-13 16:38 11.725680 -151.608367 228 32010ft 470kts
13-Jan-13 16:39 11.638549 -151.707930 228 32010ft 470kts
13-Jan-13 16:40 11.551292 -151.807770 228 32010ft 470kts
13-Jan-13 16:41 11.464502 -151.906836 228 32010ft 470kts
13-Jan-13 16:42 11.377125 -152.006566 228 32010ft 471kts
13-Jan-13 16:43 11.289159 -152.106790 228 32009ft 474kts
13-Jan-13 16:44 11.202048 -152.205833 227 32007ft 482kts
13-Jan-13 16:45 11.111894 -152.308456 227 32000ft 485kts
13-Jan-13 16:46 11.021861 -152.410644 227 31997ft 485kts
13-Jan-13 16:47 10.931889 -152.512788 228 31997ft 485kts
13-Jan-13 16:48 10.841489 -152.615310 227 31998ft 485kts
13-Jan-13 16:49 10.751396 -152.717247 227 31998ft 485kts
13-Jan-13 16:50 10.661642 -152.818917 227 31998ft 485kts
13-Jan-13 16:51 10.571350 -152.920900 227 32646ft 485kts
13-Jan-13 16:52 10.481328 -153.022645 227 33616ft 484kts
13-Jan-13 16:53 10.391123 -153.124454 227 33986ft 483kts
13-Jan-13 16:54 10.300927 -153.226027 227 33991ft 484kts
13-Jan-13 16:55 10.210958 -153.327458 227 33990ft 484kts
13-Jan-13 16:56 10.120773 -153.428847 227 33990ft 484kts
13-Jan-13 16:57 10.030789 -153.530080 227 33990ft 484kts
13-Jan-13 16:58 9.940519 -153.631465 227 33990ft 484kts
13-Jan-13 16:59 9.850433 -153.732462 227 33990ft 484kts
13-Jan-13 17:00 9.759874 -153.834102 227 33991ft 484kts
13-Jan-13 17:01 9.669514 -153.935243 227 33991ft 484kts
13-Jan-13 17:02 9.579034 -154.036566 227 33991ft 484kts
13-Jan-13 17:03 9.488669 -154.137591 227 33991ft 484kts
13-Jan-13 17:04 9.398606 -154.238191 227 33991ft 484kts
13-Jan-13 17:05 9.308660 -154.338710 227 33991ft 484kts
13-Jan-13 17:06 9.217890 -154.439883 227 33991ft 484kts
13-Jan-13 17:07 9.127814 -154.540367 227 33991ft 484kts
13-Jan-13 17:08 9.037182 -154.641278 227 33991ft 484kts
13-Jan-13 17:09 8.946613 -154.741988 227 33991ft 484kts
13-Jan-13 17:10 8.856152 -154.842654 227 33990ft 484kts
13-Jan-13 17:11 8.765601 -154.943181 227 33990ft 484kts
13-Jan-13 17:12 8.675439 -155.043336 227 33990ft 484kts
13-Jan-13 17:13 8.584561 -155.144106 227 33990ft 483kts
13-Jan-13 17:14 8.493663 -155.244813 227 33990ft 483kts
13-Jan-13 17:15 8.402822 -155.345525 227 33991ft 483kts
13-Jan-13 17:16 8.312208 -155.445744 227 33991ft 483kts
13-Jan-13 17:17 8.221231 -155.546449 227 33991ft 483kts
13-Jan-13 17:18 8.130580 -155.646600 227 33991ft 483kts
13-Jan-13 17:19 8.039538 -155.747112 227 33991ft 488kts
13-Jan-13 17:20 7.947788 -155.848417 227 33991ft 493kts
13-Jan-13 17:21 7.855343 -155.950304 226 33990ft 492kts
13-Jan-13 17:22 7.762991 -156.052124 226 33990ft 487kts
13-Jan-13 17:23 7.672203 -156.152028 226 33990ft 481kts
13-Jan-13 17:24 7.581914 -156.251403 226 33990ft 481kts
13-Jan-13 17:25 7.491637 -156.350706 226 33990ft 480kts
13-Jan-13 17:26 7.401009 -156.450256 226 33990ft 480kts
13-Jan-13 17:27 7.310831 -156.549394 226 33991ft 480kts
13-Jan-13 17:28 7.220738 -156.648240 226 33991ft 480kts
13-Jan-13 17:29 7.130703 -156.746997 226 33991ft 480kts
13-Jan-13 17:30 7.039995 -156.846446 226 33990ft 480kts
13-Jan-13 17:31 6.950320 -156.944625 226 33990ft 480kts
13-Jan-13 17:32 6.859826 -157.043762 226 33991ft 479kts
13-Jan-13 17:33 6.769318 -157.142760 226 33991ft 479kts
13-Jan-13 17:34 6.679317 -157.241183 226 33991ft 479kts
13-Jan-13 17:35 6.589020 -157.339884 226 33990ft 479kts
13-Jan-13 17:36 6.498608 -157.438583 226 33991ft 479kts
13-Jan-13 17:37 6.408241 -157.537358 226 33991ft 483kts
13-Jan-13 17:38 6.317294 -157.636496 226 33991ft 483kts
13-Jan-13 17:39 6.226394 -157.735617 226 33991ft 483kts
13-Jan-13 17:40 6.135412 -157.834785 226 33990ft 482kts
13-Jan-13 17:41 6.044285 -157.933992 226 33990ft 482kts
13-Jan-13 17:42 5.953204 -158.033204 226 33990ft 481kts
13-Jan-13 17:43 5.862879 -158.131450 226 33991ft 480kts
13-Jan-13 17:44 5.771712 -158.230602 226 33991ft 480kts
13-Jan-13 17:45 5.681576 -158.328587 226 33991ft 479kts
13-Jan-13 17:46 5.590919 -158.426964 227 33991ft 479kts
13-Jan-13 17:47 5.500644 -158.525124 227 33991ft 479kts
13-Jan-13 17:48 5.410022 -158.623433 227 33991ft 479kts
13-Jan-13 17:49 5.319357 -158.721798 227 33990ft 479kts
13-Jan-13 17:50 5.229012 -158.819780 228 33991ft 480kts
13-Jan-13 17:51 5.138310 -158.918046 228 33991ft 480kts
13-Jan-13 17:52 5.047539 -159.016435 228 33990ft 480kts
13-Jan-13 17:53 4.957419 -159.113999 228 33990ft 481kts
13-Jan-13 17:54 4.866094 -159.212861 228 33991ft 482kts
13-Jan-13 17:55 4.774924 -159.311514 228 33991ft 483kts
13-Jan-13 17:56 4.683665 -159.410175 228 33990ft 483kts
13-Jan-13 17:57 4.592527 -159.508753 228 33991ft 484kts
13-Jan-13 17:58 4.500629 -159.608040 228 33991ft 484kts
13-Jan-13 17:59 4.409455 -159.706495 228 33990ft 484kts
13-Jan-13 18:00 4.317632 -159.805649 228 33991ft 484kts
13-Jan-13 18:01 4.226047 -159.904467 228 33991ft 484kts
13-Jan-13 18:11 3.305472 -160.896161 228 33791ft 487kts
13-Jan-13 18:12 3.213906 -160.994675 228 33790ft 487kts
13-Jan-13 18:13 3.121375 -161.094138 228 33791ft 486kts
13-Jan-13 18:14 3.029195 -161.193240 228 33791ft 486kts
13-Jan-13 18:15 2.936784 -161.292535 228 33791ft 486kts
13-Jan-13 18:16 2.844645 -161.391499 228 33790ft 486kts
13-Jan-13 18:17 2.752503 -161.490494 228 33791ft 486kts
13-Jan-13 18:18 2.660429 -161.589332 228 33791ft 486kts
13-Jan-13 18:19 2.568584 -161.687949 228 33791ft 486kts
13-Jan-13 18:20 2.476275 -161.786970 228 33790ft 486kts
13-Jan-13 18:21 2.384134 -161.885794 228 33790ft 486kts
13-Jan-13 18:22 2.291619 -161.985062 228 33791ft 486kts
13-Jan-13 18:23 2.207923 -162.074820 228 33790ft 486kts
13-Jan-13 18:24 2.115752 -162.173681 228 33790ft 486kts
13-Jan-13 18:25 2.023526 -162.272561 228 33985ft 486kts
13-Jan-13 18:26 1.931460 -162.371249 228 34775ft 485kts
13-Jan-13 18:27 1.854997 -162.453227 228 34782ft 483kts
13-Jan-13 18:28 1.763009 -162.551785 228 34809ft 483kts
13-Jan-13 18:29 1.656400 -162.666029 228 34846ft 483kts
13-Jan-13 18:30 1.579684 -162.748217 228 34874ft 483kts
13-Jan-13 18:31 1.473007 -162.862427 228 34910ft 483kts
13-Jan-13 18:32 1.396555 -162.944287 228 34936ft 483kts
13-Jan-13 18:33 1.304662 -163.042687 228 34942ft 483kts
13-Jan-13 18:34 1.197993 -163.156922 228 34943ft 483kts
13-Jan-13 18:35 1.121317 -163.239018 228 34944ft 483kts
13-Jan-13 18:36 1.014648 -163.353215 228 34944ft 483kts
13-Jan-13 18:37 0.938364 -163.434888 228 34944ft 483kts
13-Jan-13 18:38 0.846618 -163.533084 228 34943ft 483kts
13-Jan-13 18:39 0.755024 -163.631123 228 34943ft 483kts
13-Jan-13 18:40 0.663074 -163.729538 228 34942ft 483kts
13-Jan-13 18:41 0.571145 -163.827920 228 34941ft 483kts
13-Jan-13 18:42 0.479757 -163.925677 228 34941ft 483kts
13-Jan-13 18:43 0.372592 -164.040285 228 34940ft 483kts
13-Jan-13 18:44 0.280773 -164.138543 228 34940ft 483kts
13-Jan-13 18:45 0.204261 -164.220418 228 34939ft 483kts
13-Jan-13 18:46 0.112661 -164.318436 228 34939ft 483kts
13-Jan-13 18:47 0.021630 -164.415849 228 34939ft 483kts
13-Jan-13 18:48 -0.070389 -164.514305 228 34938ft 483kts
13-Jan-13 18:49 -0.161816 -164.612126 228 34938ft 483kts
13-Jan-13 18:50 -0.254053 -164.710830 228 34937ft 483kts
13-Jan-13 18:51 -0.345768 -164.808978 228 34939ft 483kts
13-Jan-13 18:52 -0.437430 -164.907070 228 34940ft 483kts
13-Jan-13 18:53 -0.529189 -165.005201 228 34948ft 483kts
13-Jan-13 18:54 -0.620847 -165.103234 228 34978ft 484kts
13-Jan-13 18:55 -0.712845 -165.201697 228 34989ft 484kts
13-Jan-13 18:56 -0.804471 -165.299774 228 34991ft 484kts
13-Jan-13 18:57 -0.895875 -165.397614 228 34991ft 484kts
13-Jan-13 18:58 -0.988363 -165.496634 228 34990ft 484kts
13-Jan-13 18:59 -1.080093 -165.594810 228 34992ft 484kts
13-Jan-13 19:00 -1.171627 -165.692825 228 34991ft 484kts
13-Jan-13 19:01 -1.263387 -165.791089 228 34991ft 484kts
13-Jan-13 19:02 -1.355117 -165.889327 228 34991ft 484kts
13-Jan-13 19:03 -1.447166 -165.987932 228 34991ft 484kts
13-Jan-13 19:04 -1.539043 -166.086242 228 34991ft 484kts
13-Jan-13 19:05 -1.631085 -166.184805 228 34991ft 484kts
13-Jan-13 19:06 -1.722227 -166.282463 228 34991ft 484kts
13-Jan-13 19:07 -1.814298 -166.381134 228 34991ft 484kts
13-Jan-13 19:08 -1.906253 -166.479715 228 34991ft 484kts
13-Jan-13 19:09 -1.998030 -166.578057 228 34991ft 484kts
13-Jan-13 19:10 -2.089664 -166.676321 228 34991ft 484kts
13-Jan-13 19:11 -2.181051 -166.774327 228 34991ft 484kts
13-Jan-13 19:12 -2.272758 -166.872697 228 34991ft 483kts
13-Jan-13 19:13 -2.364382 -166.971017 228 34990ft 483kts
13-Jan-13 19:14 -2.456085 -167.069403 228 34991ft 483kts
13-Jan-13 19:15 -2.548079 -167.168036 228 34991ft 483kts
13-Jan-13 19:16 -2.639116 -167.265716 228 34991ft 483kts
13-Jan-13 19:17 -2.731254 -167.364654 228 34988ft 483kts
13-Jan-13 19:18 -2.822563 -167.462744 228 34978ft 484kts
13-Jan-13 19:19 -2.914627 -167.561598 228 34938ft 483kts
13-Jan-13 19:20 -3.006073 -167.659882 228 34939ft 482kts
13-Jan-13 19:21 -3.097485 -167.758136 228 34934ft 482kts
13-Jan-13 19:22 -3.188852 -167.856376 228 34934ft 482kts
13-Jan-13 19:23 -3.279923 -167.954351 228 34934ft 482kts
13-Jan-13 19:24 -3.371572 -168.052919 228 34934ft 482kts
13-Jan-13 19:25 -3.463168 -168.151513 228 34933ft 482kts
13-Jan-13 19:26 -3.553976 -168.249106 228 34934ft 482kts
13-Jan-13 19:27 -3.645660 -168.347790 228 34934ft 482kts
13-Jan-13 19:28 -3.736906 -168.446104 229 34934ft 482kts
13-Jan-13 19:29 -3.828217 -168.544430 228 34933ft 482kts
13-Jan-13 19:30 -3.919803 -168.643164 229 34933ft 482kts
13-Jan-13 19:31 -4.010735 -168.741194 229 34934ft 482kts
13-Jan-13 19:32 -4.101982 -168.839621 229 34933ft 482kts
13-Jan-13 19:33 -4.193485 -168.938391 229 34934ft 482kts
13-Jan-13 19:34 -4.284073 -169.036132 229 34933ft 482kts
13-Jan-13 19:35 -4.375584 -169.134980 229 34933ft 482kts
13-Jan-13 19:36 -4.466818 -169.233516 229 34932ft 482kts
13-Jan-13 19:37 -4.557984 -169.331879 229 34933ft 482kts
13-Jan-13 19:38 -4.648819 -169.430074 229 34932ft 482kts
13-Jan-13 19:39 -4.740577 -169.529243 229 34933ft 482kts
13-Jan-13 19:40 -4.831716 -169.627875 229 34932ft 482kts
13-Jan-13 19:41 -4.922689 -169.726323 229 34933ft 482kts
13-Jan-13 19:42 -5.013752 -169.824947 229 34932ft 482kts
13-Jan-13 19:43 -5.104710 -169.923537 229 34931ft 482kts
13-Jan-13 19:44 -5.195470 -170.021859 229 34930ft 482kts
13-Jan-13 19:45 -5.286999 -170.121152 229 34929ft 482kts
13-Jan-13 19:46 -5.377771 -170.219602 229 34929ft 482kts
13-Jan-13 19:47 -5.468516 -170.318335 228 34924ft 478kts
13-Jan-13 19:48 -5.558466 -170.415306 228 34920ft 482kts
13-Jan-13 19:49 -5.649443 -170.514839 227 34892ft 486kts
13-Jan-13 19:50 -5.742073 -170.615131 227 34857ft 491kts
13-Jan-13 19:51 -5.835590 -170.716761 227 34857ft 490kts
13-Jan-13 19:52 -5.928421 -170.817791 227 34854ft 491kts
13-Jan-13 19:53 -6.020629 -170.918214 227 34853ft 491kts
13-Jan-13 19:54 -6.113399 -171.019213 227 34854ft 491kts
13-Jan-13 19:55 -6.206274 -171.120487 227 34855ft 491kts
13-Jan-13 19:56 -6.298580 -171.221091 227 34853ft 491kts
13-Jan-13 19:57 -6.391022 -171.321990 227 34854ft 491kts
13-Jan-13 19:58 -6.483444 -171.422899 227 34854ft 491kts
13-Jan-13 19:59 -6.576343 -171.524131 227 34854ft 491kts
13-Jan-13 20:00 -6.668785 -171.625185 227 34854ft 491kts
13-Jan-13 20:01 -6.761023 -171.726003 227 34854ft 491kts
13-Jan-13 20:02 -6.853361 -171.827096 227 34855ft 490kts
13-Jan-13 20:03 -6.946090 -171.928625 227 34854ft 491kts
13-Jan-13 20:04 -7.038203 -172.029551 227 34856ft 490kts
13-Jan-13 20:05 -7.130735 -172.131073 227 34879ft 488kts
13-Jan-13 20:06 -7.222010 -172.231141 227 34884ft 488kts
13-Jan-13 20:07 -7.313737 -172.331897 227 34892ft 487kts
13-Jan-13 20:08 -7.405229 -172.432377 227 34897ft 487kts
13-Jan-13 20:09 -7.496804 -172.533028 227 34977ft 480kts
13-Jan-13 20:10 -7.586965 -172.632023 227 34986ft 481kts
13-Jan-13 20:11 -7.677152 -172.731194 227 34986ft 479kts
13-Jan-13 20:12 -7.767344 -172.830595 227 34991ft 479kts
13-Jan-13 20:13 -7.857403 -172.929828 227 34990ft 479kts
13-Jan-13 20:14 -7.947060 -173.028734 227 34992ft 479kts
13-Jan-13 20:15 -8.037012 -173.128093 227 34991ft 479kts
13-Jan-13 20:16 -8.126917 -173.227315 227 34991ft 479kts
13-Jan-13 20:17 -8.217033 -173.326988 227 34991ft 479kts
13-Jan-13 20:18 -8.306578 -173.426007 227 34990ft 479kts
13-Jan-13 20:19 -8.396767 -173.525834 227 34991ft 479kts
13-Jan-13 20:20 -8.486488 -173.625289 227 34990ft 479kts
13-Jan-13 20:21 -8.576531 -173.724776 227 34991ft 479kts
13-Jan-13 20:22 -8.666099 -173.824177 227 34990ft 479kts
13-Jan-13 20:23 -8.755480 -173.923377 227 34991ft 479kts
13-Jan-13 20:24 -8.845771 -174.023721 227 34990ft 479kts
13-Jan-13 20:25 -8.934807 -174.122812 227 34991ft 479kts
13-Jan-13 20:26 -9.024964 -174.223054 227 34990ft 479kts
13-Jan-13 20:27 -9.114507 -174.322856 227 34991ft 479kts
13-Jan-13 20:28 -9.204025 -174.422603 227 34991ft 479kts
13-Jan-13 20:29 -9.293569 -174.522497 227 34991ft 479kts
13-Jan-13 20:30 -9.383015 -174.622440 227 34991ft 479kts
13-Jan-13 20:31 -9.472606 -174.722453 227 34991ft 479kts
13-Jan-13 20:32 -9.562109 -174.822387 227 34990ft 479kts
13-Jan-13 20:33 -9.651866 -174.922759 227 34991ft 479kts
13-Jan-13 20:34 -9.740612 -175.022189 227 34991ft 479kts
13-Jan-13 20:35 -9.830445 -175.123008 227 34991ft 479kts
13-Jan-13 20:36 -9.919793 -175.223173 227 34991ft 479kts
13-Jan-13 20:37 -10.008728 -175.323137 227 34990ft 479kts
13-Jan-13 20:38 -10.098384 -175.423894 227 34990ft 479kts
13-Jan-13 20:39 -10.187300 -175.523942 227 34990ft 479kts
13-Jan-13 20:40 -10.276360 -175.624333 227 34990ft 479kts
13-Jan-13 20:41 -10.365856 -175.725117 227 34990ft 479kts
13-Jan-13 20:42 -10.454886 -175.825652 227 34990ft 479kts
13-Jan-13 20:43 -10.544042 -175.926104 227 34990ft 479kts
13-Jan-13 20:44 -10.632789 -176.026341 227 34990ft 479kts
13-Jan-13 20:45 -10.722397 -176.127818 227 34991ft 479kts
13-Jan-13 20:46 -10.811096 -176.228161 227 34991ft 479kts
13-Jan-13 20:47 -10.900256 -176.329314 227 34990ft 479kts
13-Jan-13 20:48 -10.988867 -176.429827 227 34991ft 479kts
13-Jan-13 20:49 -11.078065 -176.531135 228 34990ft 479kts
13-Jan-13 20:50 -11.166349 -176.631608 228 34992ft 483kts
13-Jan-13 20:51 -11.256279 -176.733845 227 34991ft 485kts
13-Jan-13 20:52 -11.346722 -176.836980 227 34991ft 483kts
13-Jan-13 20:53 -11.435369 -176.938007 227 34992ft 481kts
13-Jan-13 20:54 -11.524787 -177.039965 227 34993ft 481kts
13-Jan-13 20:55 -11.614092 -177.141941 228 34994ft 481kts
13-Jan-13 20:56 -11.702881 -177.243377 228 34994ft 481kts
13-Jan-13 20:57 -11.790413 -177.343690 229 34994ft 483kts
13-Jan-13 20:58 -11.880334 -177.446736 229 34994ft 484kts
13-Jan-13 20:59 -11.969202 -177.548726 229 34994ft 484kts
13-Jan-13 21:00 -12.059144 -177.652166 229 34994ft 484kts
13-Jan-13 21:01 -12.148568 -177.754878 229 34994ft 484kts
13-Jan-13 21:02 -12.237813 -177.857724 229 34994ft 484kts
13-Jan-13 21:03 -12.327071 -177.960543 229 34994ft 483kts
13-Jan-13 21:04 -12.416180 -178.063392 229 34994ft 483kts
13-Jan-13 21:05 -12.505851 -178.167087 229 34994ft 483kts
13-Jan-13 21:06 -12.594780 -178.269480 229 34994ft 483kts
13-Jan-13 21:07 -12.683722 -178.372529 229 34994ft 483kts
13-Jan-13 21:08 -12.772609 -178.475483 229 34994ft 483kts
13-Jan-13 21:09 -12.861417 -178.578578 229 34994ft 482kts
13-Jan-13 21:10 -12.950041 -178.681664 229 34994ft 482kts
13-Jan-13 21:11 -13.038491 -178.784399 229 34994ft 482kts
13-Jan-13 21:12 -13.127348 -178.887985 229 34994ft 482kts
13-Jan-13 21:13 -13.216188 -178.991481 229 34994ft 482kts
13-Jan-13 21:14 -13.303981 -179.094007 229 34994ft 482kts
13-Jan-13 21:15 -13.392941 -179.198098 229 34994ft 481kts
13-Jan-13 21:16 -13.466043 -179.283466 229 34994ft 481kts
13-Jan-13 21:17 -13.569794 -179.404825 229 34994ft 481kts
13-Jan-13 21:18 -13.642770 -179.490293 229 34994ft 481kts
13-Jan-13 21:19 -13.746164 -179.611737 229 34994ft 481kts
13-Jan-13 21:20 -13.819008 -179.697492 229 34994ft 481kts
13-Jan-13 21:21 -13.922165 -179.818792 229 34994ft 481kts
13-Jan-13 21:22 -14.010420 -179.922944 229 34989ft 482kts
13-Jan-13 21:23 -14.097946 179.973825 229 34933ft 480kts
13-Jan-13 21:24 -14.171462 179.886903 229 34898ft 478kts
13-Jan-13 21:25 -14.258618 179.783684 229 34886ft 477kts
13-Jan-13 21:26 -14.360117 179.663567 229 34881ft 477kts
13-Jan-13 21:27 -14.447342 179.559961 229 34883ft 476kts
13-Jan-13 21:28 -14.519860 179.474032 229 34885ft 478kts
13-Jan-13 21:29 -14.607123 179.370480 230 34888ft 478kts
13-Jan-13 21:30 -14.694401 179.266412 230 34890ft 480kts
13-Jan-13 21:31 -14.782386 179.161669 230 34892ft 482kts
13-Jan-13 21:32 -14.869783 179.057196 231 34896ft 485kts
13-Jan-13 21:33 -14.958052 178.951722 231 34893ft 484kts
13-Jan-13 21:34 -15.046021 178.846374 231 34893ft 483kts
13-Jan-13 21:35 -15.148284 178.723608 231 34892ft 482kts
13-Jan-13 21:36 -15.221200 178.636228 231 34891ft 482kts
13-Jan-13 21:37 -15.308717 178.530892 231 34882ft 481kts
13-Jan-13 21:38 -15.396270 178.425511 231 34881ft 481kts
13-Jan-13 21:39 -15.483355 178.320496 231 34871ft 480kts
13-Jan-13 21:40 -15.570930 178.214953 231 34869ft 481kts
13-Jan-13 21:41 -15.657376 178.110682 231 34862ft 480kts
13-Jan-13 21:42 -15.744773 178.004744 231 34851ft 479kts
13-Jan-13 21:43 -15.830863 177.900431 231 34843ft 479kts
13-Jan-13 21:44 -15.917982 177.794628 231 34826ft 478kts
13-Jan-13 21:45 -16.004228 177.689589 231 34816ft 478kts
13-Jan-13 21:46 -16.090598 177.584602 231 34799ft 477kts
13-Jan-13 21:47 -16.176619 177.479542 231 34877ft 479kts
13-Jan-13 21:48 -16.262776 177.374347 231 36055ft 475kts
13-Jan-13 21:49 -16.348124 177.269939 231 37043ft 473kts
13-Jan-13 21:50 -16.433079 177.165712 231 37737ft 473kts
13-Jan-13 21:51 -16.518247 177.061549 231 37739ft 471kts
13-Jan-13 21:52 -16.602309 176.958426 231 37732ft 470kts
13-Jan-13 21:53 -16.687085 176.854173 231 37730ft 470kts
13-Jan-13 21:54 -16.771181 176.750574 231 37716ft 469kts
13-Jan-13 21:55 -16.855940 176.645811 231 37716ft 470kts
13-Jan-13 21:56 -16.939683 176.542480 231 37681ft 468kts
13-Jan-13 21:57 -17.023739 176.438274 231 37680ft 469kts
13-Jan-13 21:58 -17.107972 176.333797 231 37677ft 469kts
13-Jan-13 21:59 -17.192163 176.229344 231 37675ft 469kts
13-Jan-13 22:00 -17.276020 176.124899 231 37675ft 469kts
13-Jan-13 22:01 -17.359947 176.020524 231 37674ft 469kts
13-Jan-13 22:02 -17.443726 175.915923 231 37675ft 469kts
13-Jan-13 22:03 -17.527277 175.811606 231 37675ft 469kts
13-Jan-13 22:04 -17.611329 175.706836 231 37675ft 468kts
13-Jan-13 22:05 -17.694822 175.602053 232 37675ft 468kts
13-Jan-13 22:06 -17.778475 175.497169 231 37676ft 468kts
13-Jan-13 22:07 -17.861579 175.392532 232 37676ft 468kts
13-Jan-13 22:08 -17.945681 175.286421 232 37677ft 468kts
13-Jan-13 22:09 -18.029177 175.181320 232 37677ft 468kts
13-Jan-13 22:10 -18.111775 175.076807 232 37677ft 468kts
13-Jan-13 22:11 -18.195689 174.970685 232 37678ft 469kts
13-Jan-13 22:12 -18.278557 174.865623 232 37679ft 469kts
13-Jan-13 22:13 -18.361715 174.759846 232 37680ft 469kts
13-Jan-13 22:14 -18.444920 174.654237 232 37682ft 469kts
13-Jan-13 22:15 -18.528149 174.548287 232 37684ft 469kts
13-Jan-13 22:16 -18.611399 174.442223 232 37686ft 470kts
13-Jan-13 22:17 -18.694718 174.335751 232 37687ft 470kts
13-Jan-13 22:18 -18.777446 174.229632 232 37687ft 470kts
13-Jan-13 22:19 -18.860510 174.123291 232 37688ft 470kts
13-Jan-13 22:20 -18.943470 174.016574 232 37688ft 470kts
13-Jan-13 22:21 -19.026431 173.909744 232 37689ft 470kts
13-Jan-13 22:22 -19.109216 173.803121 232 37689ft 470kts
13-Jan-13 22:23 -19.191586 173.696547 232 37690ft 470kts
13-Jan-13 22:24 -19.274692 173.589198 232 37691ft 470kts
13-Jan-13 22:25 -19.356914 173.482482 232 37692ft 470kts
13-Jan-13 22:26 -19.439192 173.375415 232 37693ft 470kts
13-Jan-13 22:27 -19.522322 173.267664 232 37710ft 468kts
13-Jan-13 22:28 -19.604363 173.160930 232 37704ft 471kts
13-Jan-13 22:29 -19.686345 173.053935 231 37756ft 463kts
13-Jan-13 22:30 -19.766547 172.948929 229 37892ft 461kts
13-Jan-13 22:31 -19.849049 172.840757 228 37946ft 478kts
13-Jan-13 22:32 -19.932780 172.731165 227 37984ft 480kts
13-Jan-13 22:33 -20.017247 172.619925 227 37991ft 482kts
13-Jan-13 22:34 -20.101660 172.508832 227 37991ft 483kts
13-Jan-13 22:35 -20.185582 172.397876 227 37991ft 481kts
13-Jan-13 22:36 -20.269856 172.286184 228 37991ft 483kts
13-Jan-13 22:37 -20.353672 172.175396 227 37991ft 480kts
13-Jan-13 22:38 -20.436613 172.065103 228 37991ft 473kts
13-Jan-13 22:39 -20.517562 171.957764 228 37976ft 456kts
13-Jan-13 22:40 -20.596425 171.853051 230 37954ft 448kts
13-Jan-13 22:41 -20.673687 171.749872 233 37937ft 447kts
13-Jan-13 22:42 -20.752021 171.645372 235 37916ft 456kts
13-Jan-13 22:43 -20.831222 171.538903 235 37908ft 457kts
13-Jan-13 22:44 -20.910054 171.432810 235 37907ft 458kts
13-Jan-13 22:45 -20.989891 171.325576 235 37904ft 458kts
13-Jan-13 22:46 -21.068941 171.218855 235 37903ft 457kts
13-Jan-13 22:47 -21.147777 171.112590 235 37900ft 458kts
13-Jan-13 22:48 -21.226480 171.006074 236 37899ft 457kts
13-Jan-13 22:49 -21.305662 170.898523 235 37895ft 459kts
13-Jan-13 22:50 -21.385056 170.791013 235 37893ft 458kts
13-Jan-13 22:51 -21.463331 170.684346 235 37890ft 458kts
13-Jan-13 22:52 -21.543078 170.576057 235 37887ft 458kts
13-Jan-13 22:53 -21.621590 170.468965 235 37884ft 458kts
13-Jan-13 22:54 -21.700453 170.360728 235 37879ft 458kts
13-Jan-13 22:55 -21.778970 170.253292 235 37875ft 458kts
13-Jan-13 22:56 -21.858029 170.144544 235 37870ft 458kts
13-Jan-13 22:57 -21.936301 170.036591 235 37866ft 457kts
13-Jan-13 22:58 -22.014421 169.929108 235 37862ft 455kts
13-Jan-13 22:59 -22.091853 169.821883 235 37858ft 454kts
13-Jan-13 23:00 -22.169396 169.714602 234 37834ft 453kts
13-Jan-13 23:01 -22.247023 169.606875 235 37823ft 453kts
13-Jan-13 23:02 -22.324227 169.499279 235 37820ft 453kts
13-Jan-13 23:03 -22.401725 169.391368 235 37819ft 451kts
13-Jan-13 23:04 -22.478801 169.283622 235 37819ft 460kts
13-Jan-13 23:05 -22.558136 169.172972 235 37821ft 470kts
13-Jan-13 23:06 -22.638490 169.060593 236 37822ft 475kts
13-Jan-13 23:07 -22.718545 168.947875 236 37822ft 475kts
13-Jan-13 23:08 -22.799452 168.834180 236 37821ft 475kts
13-Jan-13 23:09 -22.879565 168.720997 236 37821ft 475kts
13-Jan-13 23:10 -22.960329 168.606586 236 37820ft 475kts
13-Jan-13 23:11 -23.040245 168.493573 236 37820ft 475kts
13-Jan-13 23:12 -23.120557 168.379028 236 37820ft 475kts
13-Jan-13 23:13 -23.200840 168.264931 236 37820ft 476kts
13-Jan-13 23:14 -23.280662 168.150922 236 37820ft 476kts
13-Jan-13 23:15 -23.361125 168.035613 236 37819ft 478kts
13-Jan-13 23:16 -23.441779 167.920329 236 37820ft 479kts
13-Jan-13 23:17 -23.522486 167.804378 236 37819ft 481kts
13-Jan-13 23:18 -23.603889 167.687737 236 37820ft 482kts
13-Jan-13 23:19 -23.684910 167.570721 237 37820ft 482kts
13-Jan-13 23:20 -23.764891 167.454647 236 37821ft 481kts
13-Jan-13 23:21 -23.845632 167.337780 237 37822ft 480kts
13-Jan-13 23:22 -23.925803 167.221001 237 37822ft 480kts
13-Jan-13 23:23 -24.005890 167.104575 237 38380ft 475kts
13-Jan-13 23:24 -24.084102 166.990263 237 38816ft 467kts
13-Jan-13 23:25 -24.173648 166.888122 209 38828ft 484kts
13-Jan-13 23:26 -24.299391 166.834823 205 38829ft 484kts
13-Jan-13 23:27 -24.424734 166.780237 206 38829ft 483kts
13-Jan-13 23:28 -24.547335 166.723710 207 38831ft 478kts
13-Jan-13 23:29 -24.668722 166.666130 207 38833ft 472kts
13-Jan-13 23:30 -24.788498 166.606181 208 38834ft 473kts
13-Jan-13 23:31 -24.906877 166.543851 209 38838ft 470kts
13-Jan-13 23:32 -25.022680 166.480756 209 38866ft 462kts
13-Jan-13 23:33 -25.136706 166.414883 211 38896ft 461kts
13-Jan-13 23:34 -25.248964 166.346798 211 38928ft 459kts
13-Jan-13 23:35 -25.359697 166.277332 211 38957ft 456kts
13-Jan-13 23:36 -25.468921 166.205471 212 38985ft 455kts
13-Jan-13 23:37 -25.576566 166.132692 212 38990ft 455kts
13-Jan-13 23:38 -25.684039 166.058132 213 38991ft 455kts
13-Jan-13 23:39 -25.789871 165.981665 213 38991ft 455kts
13-Jan-13 23:40 -25.895702 165.903221 213 38992ft 456kts
13-Jan-13 23:41 -25.999997 165.823703 214 38990ft 454kts
13-Jan-13 23:42 -26.103038 165.742354 214 38985ft 454kts
13-Jan-13 23:43 -26.205140 165.660366 215 38980ft 451kts
13-Jan-13 23:44 -26.305832 165.577142 215 38972ft 450kts
13-Jan-13 23:45 -26.405568 165.492291 215 38962ft 450kts
13-Jan-13 23:46 -26.503868 165.407142 216 38959ft 448kts
13-Jan-13 23:47 -26.602173 165.320470 216 38956ft 453kts
13-Jan-13 23:48 -26.699438 165.231528 220 38951ft 453kts
13-Jan-13 23:49 -26.780860 165.121723 230 38947ft 457kts
13-Jan-13 23:50 -26.856371 165.004942 230 38913ft 472kts
13-Jan-13 23:51 -26.935231 164.883262 234 38809ft 493kts
13-Jan-13 23:52 -27.015139 164.758794 234 38797ft 489kts
13-Jan-13 23:53 -27.095056 164.634309 233 38792ft 490kts
13-Jan-13 23:54 -27.174466 164.510407 234 38790ft 491kts
13-Jan-13 23:55 -27.254274 164.384722 234 38789ft 491kts
13-Jan-13 23:56 -27.333338 164.260905 234 38822ft 492kts
13-Jan-13 23:57 -27.412851 164.135394 234 39597ft 491kts
13-Jan-13 23:58 -27.492142 164.010264 234 39791ft 491kts
13-Jan-13 23:59 -27.571842 163.884681 234 39790ft 492kts
14-Jan-13 00:00 -27.650838 163.758900 234 39793ft 492kts
14-Jan-13 00:01 -27.730005 163.633224 234 39796ft 491kts
14-Jan-13 00:11 -28.520264 162.352832 232 39890ft 501kts
14-Jan-13 00:12 -28.582969 162.249751 232 39890ft 502kts
14-Jan-13 00:13 -28.676053 162.096514 232 39891ft 503kts
14-Jan-13 00:14 -28.754911 161.965711 232 39887ft 505kts
14-Jan-13 00:15 -28.835268 161.832399 235 39885ft 509kts
14-Jan-13 00:16 -28.915273 161.698898 235 39885ft 509kts
14-Jan-13 00:17 -28.994639 161.565804 235 39883ft 509kts
14-Jan-13 00:18 -29.061435 161.454066 235 39882ft 509kts
14-Jan-13 00:19 -29.140559 161.320378 235 39881ft 509kts
14-Jan-13 00:20 -29.233846 161.163247 235 39879ft 509kts
14-Jan-13 00:21 -29.312924 161.029015 236 39878ft 508kts
14-Jan-13 00:22 -29.378189 160.918066 235 39876ft 508kts
14-Jan-13 00:23 -29.457759 160.782750 236 39875ft 508kts
14-Jan-13 00:24 -29.536157 160.648836 236 39873ft 507kts
14-Jan-13 00:25 -29.614994 160.514422 236 39872ft 507kts
14-Jan-13 00:26 -29.692739 160.379880 236 39867ft 505kts
14-Jan-13 00:27 -29.770649 160.245576 236 39845ft 498kts
14-Jan-13 00:28 -29.847147 160.112966 236 39837ft 494kts
14-Jan-13 00:29 -29.922329 159.981908 236 39845ft 489kts
14-Jan-13 00:30 -29.997582 159.851265 236 39849ft 488kts
14-Jan-13 00:31 -30.071238 159.722078 236 39851ft 488kts
14-Jan-13 00:32 -30.145244 159.592593 236 39852ft 488kts
14-Jan-13 00:33 -30.219559 159.461415 236 39853ft 488kts
14-Jan-13 00:34 -30.293437 159.330318 236 39853ft 488kts
14-Jan-13 00:35 -30.368350 159.198031 236 39853ft 488kts
14-Jan-13 00:36 -30.442253 159.066251 236 39853ft 488kts
14-Jan-13 00:37 -30.516509 158.934538 236 39853ft 488kts
14-Jan-13 00:38 -30.590418 158.802597 236 39853ft 488kts
14-Jan-13 00:39 -30.664125 158.670172 236 39853ft 488kts
14-Jan-13 00:40 -30.738007 158.537390 236 39853ft 488kts
14-Jan-13 00:41 -30.810712 158.405087 237 39858ft 488kts
14-Jan-13 00:42 -30.884427 158.271792 237 39861ft 487kts
14-Jan-13 00:43 -30.969117 158.117260 237 39890ft 485kts
14-Jan-13 00:44 -31.029994 158.006173 236 39914ft 484kts
14-Jan-13 00:45 -31.102186 157.874078 237 39913ft 485kts
14-Jan-13 00:46 -31.174463 157.740760 237 39917ft 484kts
14-Jan-13 00:47 -31.246942 157.607618 237 39919ft 484kts
14-Jan-13 00:48 -31.318683 157.474383 238 39920ft 484kts
14-Jan-13 00:49 -31.390464 157.340716 237 39926ft 491kts
14-Jan-13 00:50 -31.463512 157.204546 236 39939ft 495kts
14-Jan-13 00:51 -31.536662 157.067824 235 39952ft 486kts
14-Jan-13 00:52 -31.606661 156.937418 234 39963ft 464kts
14-Jan-13 00:53 -31.673377 156.811602 236 39976ft 444kts
14-Jan-13 00:54 -31.738543 156.688432 236 39981ft 445kts
14-Jan-13 00:55 -31.804067 156.564446 236 39982ft 445kts
14-Jan-13 00:56 -31.868677 156.440764 236 39983ft 445kts
14-Jan-13 00:57 -31.933951 156.316444 236 39984ft 445kts
14-Jan-13 00:58 -32.009861 156.170881 236 39985ft 446kts
14-Jan-13 00:59 -32.063494 156.067473 237 39985ft 446kts
14-Jan-13 01:00 -32.128423 155.943018 236 39985ft 446kts
14-Jan-13 01:01 -32.192855 155.818146 237 39985ft 446kts
14-Jan-13 01:02 -32.257311 155.693045 236 39985ft 446kts
14-Jan-13 01:03 -32.321774 155.567960 237 39986ft 446kts
14-Jan-13 01:04 -32.385743 155.442289 237 39986ft 446kts
14-Jan-13 01:05 -32.450096 155.316334 237 39986ft 446kts
14-Jan-13 01:06 -32.514366 155.190155 236 39994ft 446kts
14-Jan-13 01:07 -32.578419 155.063942 237 40016ft 446kts
14-Jan-13 01:08 -32.642300 154.938218 237 40026ft 447kts
14-Jan-13 01:09 -32.705936 154.811552 237 40029ft 447kts
14-Jan-13 01:10 -32.769700 154.684289 236 40032ft 447kts
14-Jan-13 01:11 -32.833405 154.557386 237 40033ft 447kts
14-Jan-13 01:12 -32.896467 154.429983 237 40034ft 447kts
14-Jan-13 01:13 -32.959770 154.302671 237 40035ft 447kts
14-Jan-13 01:14 -33.023096 154.174677 237 40037ft 447kts
14-Jan-13 01:15 -33.085767 154.047150 237 40039ft 448kts
14-Jan-13 01:16 -33.148958 153.919214 237 40040ft 448kts
14-Jan-13 01:17 -33.211499 153.791237 237 40041ft 448kts
14-Jan-13 01:18 -33.274121 153.662632 237 40042ft 448kts
14-Jan-13 01:19 -33.336940 153.534036 237 40044ft 448kts
14-Jan-13 01:20 -33.399128 153.404756 237 40046ft 448kts
14-Jan-13 01:21 -33.461770 153.275242 237 40052ft 448kts
14-Jan-13 01:22 -33.524336 153.145911 238 37988ft 447kts
14-Jan-13 01:23 -33.584288 153.020578 239 35808ft 421kts
14-Jan-13 01:24 -33.641726 152.900941 238 33511ft 404kts
14-Jan-13 01:25 -33.696350 152.786077 238 31345ft 391kts
14-Jan-13 01:26 -33.749302 152.674190 238 29288ft 379kts
14-Jan-13 01:27 -33.800680 152.566154 238 27415ft 365kts
14-Jan-13 01:28 -33.849625 152.462015 238 25568ft 354kts
14-Jan-13 01:29 -33.898590 152.357542 238 23069ft 357kts
14-Jan-13 01:30 -33.946576 152.255152 238 21023ft 346kts
14-Jan-13 01:31 -33.993228 152.155570 237 18983ft 336kts
14-Jan-13 01:32 -34.027015 152.052889 260 16922ft 336kts
14-Jan-13 01:33 -34.021676 151.940765 272 14883ft 334kts
14-Jan-13 01:34 -34.010565 151.830887 272 12882ft 326kts
14-Jan-13 01:35 -33.999756 151.724957 272 11546ft 294kts
14-Jan-13 01:36 -33.990772 151.635701 271 10439ft 258kts
14-Jan-13 01:37 -33.982852 151.557143 271 9243ft 218kts
14-Jan-13 01:38 -33.975638 151.489165 271 8088ft 207kts
14-Jan-13 01:39 -33.968142 151.417856 271 7372ft 211kts
14-Jan-13 01:40 -33.993822 151.360071 210 6602ft 211kts
14-Jan-13 01:41 -34.043328 151.324943 210 5824ft 192kts
14-Jan-13 01:42 -34.082965 151.296937 214 5283ft 155kts
14-Jan-13 01:43 -34.117743 151.272650 211 4762ft 150kts
14-Jan-13 01:44 -34.146395 151.240139 266 4200ft 160kts
14-Jan-13 01:45 -34.104498 151.216138 345 2754ft 196kts
14-Jan-13 01:46 -34.056711 151.204634 345 1866ft 172kts
14-Jan-13 01:47 -34.010347 151.192655 347 937ft 167kts
14-Jan-13 01:48 -33.964648 151.180768 347 65ft 167kts
14-Jan-13 01:49 -33.939919 151.174322 345 33ft 9kts
14-Jan-13 01:50 -33.939790 151.171763 252 33ft 2kts
14-Jan-13 01:51 -33.940494 151.168892 253 33ft 12kts
14-Jan-13 01:52 -33.939562 151.168558 71 33ft 2kts
14-Jan-13 01:53 -33.939545 151.168620 71 33ft 0kts
14-Jan-13 01:54 -33.939545 151.168621 71 33ft 0kts
14-Jan-13 01:55 -33.939545 151.168621 71 33ft 0kts
14-Jan-13 01:56 -33.939544 151.168622 71 33ft 0kts
14-Jan-13 01:57 -33.939544 151.168622 71 33ft 0kts

Navigation Log

Ident Type
Flight plan parsing failed, navigation log unavailable